Murtala Muhammed International Airport

DNMM · Lagos, 尼日利亚

METAR DNMM · Murtala Muhammed International Airport

罗盘
风向 的 Murtala Muhammed International Airport 18L/36R
风: 2 kt, 1 beaufort

2 kt

改变
0 1.000 2.000 3.000 4.000 5.000
FEW 1.000 ft
METAR DNMM 070400Z VRB02KT 8000 FEW010 26/25 Q1010 NOSIG

METAR Murtala Muhammed International Airport - DNMM/LOS

Murtala Muhammed International Airport是,尼日利亚中的大型机场。 该机场有3条跑道: 18L/36R, 18R/36L 和 18/36. 该领域的国际民航组织标志是DNMM 它的国际航空运输协会代码是LOS.

这份报告是针对2022年12月7日 05:00, 当地时间在Murtala Muhammed International Airport进行的。

机场观察

可变方向的风很小或没有风。

可见度为8 km。

有几云在1.000 ft的高度。 没有观察到天花板。

温度和风寒是26 °C。 露点为25 °C,相对湿度为94%。 海平面上的气压为1010 hPa (QNH)。

白天

今天,太阳从06:45升起,在18:30降落。 这适用于Murtala Muhammed International Airport,世界夏令时可能有所不同。 当地时间与世界标准时间之间的时差为+1 小时。 当前,没有夏令时有效。

公司介绍

我们没有关于这个机场的公司信息。

体会

到Vliegles.nl去找飞行课程,跳伞和其他飞行体验。 浏览页面,了解Murtala Muhammed International Airport附近所有可用的活动。 你也可以使用搜索功能来寻找你所在地附近的特定飞行课程、跳伞或其他飞行体验。

跑道

Id 标题 侧风 逆风 侧风 %
18L/36R 180°-360° 2 kt 0 %
18R/36L 180°-360° 2 kt 0 %
18/36 180°-360° 2 kt 0 %

逆风成分最大的方向会被突出显示,并用于横风计算。 这并不一定意味着这个方向在使用。

乌云

1.000 ft FEW 几云

温度 & 天气

温度 26 °C
露点 25 °C
相对湿度 94%
Kp-index 2 (0-9)

白天

日出
06:45 (1:07)
中午
12:38
日落
18:30

小工具

你想在你的网站上有一个关于Murtala Muhammed International Airport的当前航空天气(METAR)的小部件吗?

显示HTML代码

我们和第三方通过cookies跟踪您在我们网站上的互联网行为。如果你继续,我们认为你同意我们的饼干政策